createdAt,value
2019-04-25T00:02:23.758Z,14.73
2019-04-25T00:04:53.176Z,13.32
2019-04-25T00:07:23.152Z,15.23
2019-04-25T00:09:56.400Z,16.77
2019-04-25T00:12:26.196Z,16.82
2019-04-25T00:14:55.645Z,16.27
2019-04-25T00:17:26.124Z,17.35
2019-04-25T00:19:55.950Z,20.47
2019-04-25T00:23:02.977Z,13.35
2019-04-25T00:25:54.246Z,16.00
2019-04-25T00:28:24.571Z,17.60
2019-04-25T00:30:54.708Z,19.90
2019-04-25T00:33:24.380Z,13.20
2019-04-25T00:35:53.879Z,13.50
2019-04-25T00:38:23.330Z,14.60
2019-04-25T00:40:53.573Z,16.87
2019-04-25T00:43:23.198Z,15.55
2019-04-25T00:45:52.762Z,17.05
2019-04-25T00:48:22.544Z,16.52
2019-04-25T00:50:54.482Z,16.03
2019-04-25T00:53:23.094Z,18.03
2019-04-25T00:55:53.796Z,16.67
2019-04-25T00:58:38.819Z,13.03
2019-04-25T01:01:31.663Z,15.78
2019-04-25T01:04:02.320Z,14.45
2019-04-25T01:06:32.031Z,14.75
2019-04-25T01:09:02.183Z,13.28
2019-04-25T01:11:31.742Z,14.35
2019-04-25T01:14:02.161Z,16.55
2019-04-25T01:16:31.923Z,13.10
2019-04-25T01:19:01.347Z,16.02
2019-04-25T01:21:30.753Z,10.90
2019-04-25T01:24:00.344Z,20.85
2019-04-25T01:26:29.780Z,13.05
2019-04-25T01:28:59.220Z,14.80
2019-04-25T01:31:30.243Z,14.93
2019-04-25T01:33:59.781Z,15.65
2019-04-25T01:36:39.809Z,11.85
2019-04-25T01:39:24.212Z,15.03
2019-04-25T01:42:13.817Z,17.77
2019-04-25T01:44:45.305Z,12.63
2019-04-25T01:47:16.165Z,13.60
2019-04-25T01:49:45.579Z,14.43
2019-04-25T01:52:15.038Z,15.63
2019-04-25T01:54:44.774Z,14.73
2019-04-25T01:57:14.397Z,15.18
2019-04-25T01:59:44.378Z,14.00
2019-04-25T02:02:18.023Z,14.87
2019-04-25T02:04:47.571Z,16.33
2019-04-25T02:07:17.207Z,16.17
2019-04-25T02:09:47.208Z,17.07
2019-04-25T02:12:25.977Z,15.97
2019-04-25T02:14:55.984Z,13.35
2019-04-25T02:17:26.350Z,15.20
2019-04-25T02:19:56.718Z,14.47
2019-04-25T02:22:26.730Z,12.53
2019-04-25T02:24:57.117Z,14.65
2019-04-25T02:27:27.125Z,14.23
2019-04-25T02:29:57.258Z,23.50
2019-04-25T02:32:26.899Z,14.90
2019-04-25T02:35:00.506Z,18.15
2019-04-25T02:37:28.026Z,13.55
2019-04-25T02:39:59.986Z,18.27
2019-04-25T02:42:28.628Z,14.60
2019-04-25T02:45:16.258Z,21.55
2019-04-25T02:48:07.031Z,17.35
2019-04-25T02:50:49.776Z,17.42
2019-04-25T02:53:47.192Z,12.78
2019-04-25T02:56:30.273Z,14.73
2019-04-25T02:58:47.766Z,13.88
2019-04-25T03:01:22.849Z,13.58
2019-04-25T03:03:50.046Z,16.97
2019-04-25T03:06:19.446Z,16.02
2019-04-25T03:08:49.207Z,14.40
2019-04-25T03:11:18.665Z,18.17
2019-04-25T03:13:48.118Z,16.17
2019-04-25T03:16:17.876Z,14.90
2019-04-25T03:19:09.400Z,19.27
2019-04-25T03:21:39.978Z,16.48
2019-04-25T03:24:12.954Z,15.55
2019-04-25T03:26:40.774Z,16.67
2019-04-25T03:29:10.525Z,13.70
2019-04-25T03:31:39.961Z,14.38
2019-04-25T03:34:16.015Z,15.38
2019-04-25T03:36:43.986Z,15.65
2019-04-25T03:39:16.279Z,15.90
2019-04-25T03:41:45.550Z,18.35
2019-04-25T03:44:15.914Z,15.75
2019-04-25T03:46:45.488Z,17.75
2019-04-25T03:49:14.960Z,15.45
2019-04-25T03:51:44.484Z,16.03
2019-04-25T03:54:14.404Z,20.12
2019-04-25T03:56:53.297Z,16.07
2019-04-25T03:59:16.105Z,15.18
2019-04-25T04:01:45.846Z,16.83
2019-04-25T04:04:16.300Z,17.23
2019-04-25T04:06:46.075Z,16.17
2019-04-25T04:09:15.563Z,17.70
2019-04-25T04:11:45.066Z,15.68
2019-04-25T04:14:15.772Z,14.10
2019-04-25T04:17:05.065Z,15.00
2019-04-25T04:19:40.508Z,19.52
2019-04-25T04:22:17.530Z,16.15
2019-04-25T04:24:50.836Z,16.32
2019-04-25T04:27:20.326Z,17.30
2019-04-25T04:29:50.010Z,18.60
2019-04-25T04:32:19.485Z,14.70
2019-04-25T04:34:48.963Z,19.63
2019-04-25T04:37:18.693Z,17.37
2019-04-25T04:39:48.153Z,18.80
2019-04-25T04:42:17.930Z,16.73
2019-04-25T04:44:47.443Z,21.77
2019-04-25T04:50:03.847Z,14.95
2019-04-25T04:52:34.110Z,17.60
2019-04-25T04:55:07.994Z,17.02
2019-04-25T04:57:36.291Z,18.03
2019-04-25T05:00:06.659Z,15.07
2019-04-25T05:02:55.120Z,15.20
2019-04-25T05:05:35.701Z,17.87
2019-04-25T05:08:09.057Z,16.07
2019-04-25T05:10:38.534Z,17.57
2019-04-25T05:13:08.297Z,17.17
2019-04-25T05:15:37.855Z,20.47
2019-04-25T05:18:07.735Z,12.35
2019-04-25T05:20:37.161Z,12.90
2019-04-25T05:23:08.857Z,17.20
2019-04-25T05:25:37.661Z,16.87
2019-04-25T05:28:07.453Z,18.48
2019-04-25T05:30:45.293Z,16.45
2019-04-25T05:33:18.529Z,14.50
2019-04-25T05:35:45.908Z,17.93
2019-04-25T05:38:16.332Z,17.48
2019-04-25T05:40:53.951Z,14.68
2019-04-25T05:43:25.491Z,17.48
2019-04-25T05:45:54.911Z,15.25
2019-04-25T05:48:25.381Z,14.07
2019-04-25T05:50:55.768Z,17.32
2019-04-25T05:53:26.238Z,16.33
2019-04-25T05:55:56.198Z,14.78
2019-04-25T05:58:26.107Z,14.38
2019-04-25T06:00:56.689Z,17.62
2019-04-25T06:03:26.586Z,11.95
2019-04-25T06:05:57.131Z,14.13
2019-04-25T06:08:28.234Z,14.23
2019-04-25T06:11:04.137Z,17.10
2019-04-25T06:13:41.342Z,13.10
2019-04-25T06:16:23.673Z,26.68
2019-04-25T06:19:13.766Z,23.47
2019-04-25T06:21:35.569Z,18.37
2019-04-25T06:24:25.765Z,15.55
2019-04-25T06:27:17.057Z,16.63
2019-04-25T06:29:58.025Z,17.40
2019-04-25T06:32:21.497Z,13.20
2019-04-25T06:34:51.112Z,21.60
2019-04-25T06:37:21.333Z,15.40
2019-04-25T06:39:50.915Z,15.00
2019-04-25T06:42:21.137Z,16.27
2019-04-25T06:45:10.198Z,13.93
2019-04-25T06:47:57.574Z,19.62
2019-04-25T06:50:27.304Z,15.65
2019-04-25T06:52:56.830Z,15.23
2019-04-25T06:55:27.198Z,15.78
2019-04-25T06:58:08.934Z,14.70
2019-04-25T07:00:34.259Z,11.93
2019-04-25T07:03:02.248Z,11.57
2019-04-25T07:05:35.773Z,14.43
2019-04-25T07:08:03.349Z,18.48
2019-04-25T07:10:33.910Z,12.98
2019-04-25T07:13:04.352Z,16.73
2019-04-25T07:15:35.300Z,16.03
2019-04-25T07:18:05.009Z,10.45
2019-04-25T07:20:35.473Z,16.65
2019-04-25T07:23:05.811Z,17.52
2019-04-25T07:25:38.182Z,14.13
2019-04-25T07:28:35.411Z,14.58
2019-04-25T07:31:24.985Z,19.27
2019-04-25T07:33:58.697Z,17.17
2019-04-25T07:36:28.532Z,18.42
2019-04-25T07:39:07.539Z,15.35
2019-04-25T07:41:29.348Z,19.35
2019-04-25T07:43:59.061Z,15.67
2019-04-25T07:46:28.543Z,15.00
2019-04-25T07:48:58.268Z,16.73
2019-04-25T07:51:28.223Z,12.45
2019-04-25T07:53:57.890Z,15.90
2019-04-25T07:56:27.791Z,15.08
2019-04-25T07:58:57.398Z,15.98
2019-04-25T08:01:27.982Z,15.43
2019-04-25T08:03:57.660Z,15.93
2019-04-25T08:06:27.743Z,16.37
2019-04-25T08:08:57.297Z,12.68
2019-04-25T08:11:28.052Z,16.15
2019-04-25T08:14:12.255Z,15.65
2019-04-25T08:16:44.784Z,14.65
2019-04-25T08:19:14.652Z,11.87
2019-04-25T08:21:45.139Z,15.18
2019-04-25T08:24:15.772Z,15.60
2019-04-25T08:26:45.200Z,15.63
2019-04-25T08:29:14.652Z,13.60
2019-04-25T08:31:45.327Z,13.45
2019-04-25T08:34:14.840Z,13.87
2019-04-25T08:36:45.630Z,17.27
2019-04-25T08:39:15.927Z,14.20
2019-04-25T08:41:45.843Z,13.70
2019-04-25T08:44:15.598Z,18.07
2019-04-25T08:46:48.541Z,13.70
2019-04-25T08:49:24.377Z,17.57
2019-04-25T08:51:56.104Z,16.67
2019-04-25T08:54:48.093Z,18.50
2019-04-25T08:57:36.579Z,18.85
2019-04-25T09:00:26.202Z,17.73
2019-04-25T09:02:59.960Z,17.12
2019-04-25T09:05:36.448Z,15.75
2019-04-25T09:08:06.210Z,17.45
2019-04-25T09:10:37.388Z,13.83
2019-04-25T09:13:06.761Z,18.32
2019-04-25T09:15:36.967Z,19.90
2019-04-25T09:18:07.541Z,12.75
2019-04-25T09:20:40.284Z,18.32
2019-04-25T09:23:08.332Z,17.17
2019-04-25T09:25:38.583Z,15.32
2019-04-25T09:28:08.168Z,14.55
2019-04-25T09:30:38.430Z,17.60
2019-04-25T09:33:08.148Z,19.17
2019-04-25T09:35:37.720Z,16.25
2019-04-25T09:38:07.090Z,19.17
2019-04-25T09:40:37.413Z,17.87
2019-04-25T09:43:07.086Z,15.18
2019-04-25T09:45:54.291Z,14.73
2019-04-25T09:48:46.799Z,21.48
2019-04-25T10:39:10.729Z,20.52
2019-04-25T10:41:36.138Z,14.68
2019-04-25T10:44:06.193Z,15.23
2019-04-25T10:46:35.649Z,23.75
2019-04-25T10:49:05.212Z,22.15
2019-04-25T10:51:34.867Z,14.60
2019-04-25T10:54:04.545Z,15.70
2019-04-25T10:56:34.208Z,13.72
2019-04-25T10:59:04.231Z,14.47
2019-04-25T11:01:33.991Z,15.63
2019-04-25T11:04:11.642Z,16.67
2019-04-25T11:06:41.845Z,16.50
2019-04-25T11:09:19.929Z,18.80
2019-04-25T11:11:50.338Z,18.45
2019-04-25T11:14:20.318Z,20.08
2019-04-25T11:16:50.394Z,26.70
2019-04-25T11:19:20.158Z,15.95
2019-04-25T11:21:49.712Z,16.45
2019-04-25T12:26:55.145Z,13.15
2019-04-25T12:29:27.547Z,15.98
2019-04-25T12:31:57.417Z,19.45
2019-04-25T12:34:27.757Z,19.77
2019-04-25T12:36:57.556Z,19.57
2019-04-25T12:39:27.394Z,17.57
2019-04-25T12:41:57.221Z,19.50
2019-04-25T12:44:48.869Z,17.42
2019-04-25T12:49:50.572Z,13.13
2019-04-25T12:52:20.557Z,23.07
2019-04-25T12:54:51.013Z,17.52
2019-04-25T12:57:21.579Z,18.05
2019-04-25T12:59:51.279Z,19.45
2019-04-25T13:02:21.083Z,21.20
2019-04-25T13:04:50.617Z,17.98
2019-04-25T13:07:20.063Z,16.05
2019-04-25T13:09:52.245Z,14.70
2019-04-25T13:12:23.311Z,18.23
2019-04-25T13:14:53.186Z,17.27
2019-04-25T13:17:24.128Z,20.65
2019-04-25T13:19:54.346Z,20.50
2019-04-25T13:22:23.975Z,19.27
2019-04-25T13:24:53.453Z,16.05
2019-04-25T13:27:29.825Z,19.42
2019-04-25T13:30:24.366Z,33.42
2019-04-25T13:33:05.025Z,14.98
2019-04-25T13:35:39.470Z,18.00
2019-04-25T13:38:08.946Z,19.70
2019-04-25T13:40:38.435Z,20.45
2019-04-25T13:43:07.976Z,17.75
2019-04-25T13:45:37.544Z,17.45
2019-04-25T13:48:06.944Z,15.55
2019-04-25T13:50:36.410Z,14.87
2019-04-25T13:53:06.161Z,13.13
2019-04-25T13:55:35.596Z,18.15
2019-04-25T13:58:05.544Z,21.25
2019-04-25T14:00:36.406Z,17.48
2019-04-25T14:03:05.986Z,18.52
2019-04-25T14:05:35.706Z,21.73
2019-04-25T14:08:05.229Z,29.85
2019-04-25T14:10:34.722Z,20.12
2019-04-25T14:13:04.365Z,16.07
2019-04-25T14:15:34.584Z,19.80
2019-04-25T14:18:18.568Z,24.35
2019-04-25T14:20:52.429Z,20.55
2019-04-25T14:23:24.406Z,24.65
2019-04-25T14:25:53.424Z,15.30
2019-04-25T14:28:23.454Z,15.45
2019-04-25T14:30:53.983Z,23.45
2019-04-25T14:33:25.407Z,24.32
2019-04-25T14:35:54.873Z,18.20
2019-04-25T14:38:25.334Z,20.32
2019-04-25T14:40:55.560Z,17.37
2019-04-25T14:43:24.989Z,16.57
2019-04-25T14:45:56.403Z,21.62
2019-04-25T14:48:27.159Z,20.12
2019-04-25T14:50:56.598Z,21.35
2019-04-25T14:53:26.409Z,16.75
2019-04-25T14:56:23.747Z,20.88
2019-04-25T14:58:53.264Z,19.32
2019-04-25T15:01:24.048Z,19.12
2019-04-25T15:03:53.495Z,22.80
2019-04-25T15:06:24.382Z,22.22
2019-04-25T15:08:54.382Z,13.05
2019-04-25T15:11:24.513Z,23.40
2019-04-25T15:13:55.377Z,16.23
2019-04-25T15:16:24.809Z,14.30
2019-04-25T15:18:54.278Z,26.48
2019-04-25T15:21:23.833Z,16.57
2019-04-25T15:24:00.051Z,20.72
2019-04-25T15:26:24.790Z,24.82
2019-04-25T15:28:54.591Z,14.40
2019-04-25T15:31:25.552Z,20.50
2019-04-25T15:33:55.322Z,23.32
2019-04-25T15:36:43.714Z,22.75
2019-04-25T15:39:33.177Z,26.55
2019-04-25T15:42:11.678Z,20.77
2019-04-25T15:45:00.076Z,15.72
2019-04-25T15:47:30.422Z,23.18
2019-04-25T15:49:59.871Z,21.12
2019-04-25T15:52:29.467Z,28.07
2019-04-25T15:55:07.030Z,27.40
2019-04-25T15:57:30.057Z,29.35
2019-04-25T15:59:59.513Z,29.37
2019-04-25T16:02:30.742Z,33.48
2019-04-25T16:05:00.147Z,33.20
2019-04-25T16:07:29.952Z,26.52
2019-04-25T16:09:59.474Z,34.03
2019-04-25T16:12:29.470Z,27.48
2019-04-25T16:14:59.003Z,23.85
2019-04-25T16:17:28.666Z,26.60
2019-04-25T16:19:58.716Z,21.77
2019-04-25T16:22:29.105Z,26.62
2019-04-25T16:25:00.340Z,21.82
2019-04-25T16:27:30.399Z,23.22
2019-04-25T16:29:59.919Z,15.75
2019-04-25T16:32:30.370Z,22.67
2019-04-25T16:34:59.991Z,19.52
2019-04-25T16:37:30.302Z,26.70
2019-04-25T16:39:59.773Z,37.28
2019-04-25T16:42:30.371Z,29.12
2019-04-25T16:44:59.990Z,24.32
2019-04-25T16:47:31.173Z,19.37
2019-04-25T16:50:00.711Z,26.00
2019-04-25T16:52:30.459Z,18.17
2019-04-25T16:55:00.038Z,24.20
2019-04-25T16:57:30.510Z,23.15
2019-04-25T17:00:01.052Z,28.65
2019-04-25T17:02:37.608Z,22.50
2019-04-25T17:05:05.259Z,30.52
2019-04-25T17:07:34.702Z,35.17
2019-04-25T17:10:04.650Z,30.08
2019-04-25T17:12:34.371Z,24.65
2019-04-25T17:15:30.620Z,31.40
2019-04-25T17:18:13.232Z,26.48
2019-04-25T17:20:46.978Z,21.07
2019-04-25T17:23:16.788Z,29.72
2019-04-25T17:25:46.230Z,30.62
2019-04-25T17:28:18.468Z,29.60
2019-04-25T17:30:50.700Z,31.30
2019-04-25T17:33:42.599Z,29.42
2019-04-25T17:36:22.908Z,30.30
2019-04-25T17:38:58.935Z,36.00
2019-04-25T17:41:28.388Z,28.52
2019-04-25T17:44:00.979Z,27.82
2019-04-25T17:46:29.594Z,25.70
2019-04-25T17:48:59.183Z,24.82
2019-04-25T17:51:30.179Z,27.40
2019-04-25T17:53:59.959Z,26.80
2019-04-25T17:56:29.561Z,32.10
2019-04-25T17:58:59.018Z,27.33
2019-04-25T18:01:28.772Z,29.20
2019-04-25T18:03:58.822Z,33.42
2019-04-25T18:06:28.249Z,26.97
2019-04-25T18:08:57.738Z,31.75
2019-04-25T18:11:28.116Z,32.98
2019-04-25T18:13:57.623Z,29.70
2019-04-25T18:16:38.760Z,28.13
2019-04-25T18:19:12.295Z,53.33
2019-04-25T18:21:42.834Z,37.20
2019-04-25T18:24:30.044Z,33.80
2019-04-25T18:27:27.712Z,28.80
2019-04-25T18:29:57.316Z,29.50
2019-04-25T18:32:29.533Z,36.73
2019-04-25T18:35:21.041Z,30.50
2019-04-25T18:38:18.611Z,35.10
2019-04-25T18:41:01.376Z,28.87
2019-04-25T18:43:35.582Z,35.88
2019-04-25T18:46:10.938Z,33.85
2019-04-25T18:48:40.711Z,30.82
2019-04-25T18:51:10.399Z,26.00
2019-04-25T18:54:17.252Z,30.77
2019-04-25T18:56:56.364Z,32.75
2019-04-25T18:59:44.030Z,29.20
2019-04-25T19:02:27.582Z,29.02
2019-04-25T19:05:14.803Z,30.62
2019-04-25T19:07:45.341Z,27.37
2019-04-25T19:10:15.432Z,28.90
2019-04-25T19:12:45.242Z,27.35
2019-04-25T19:15:14.681Z,31.90
2019-04-25T19:17:45.200Z,31.37
2019-04-25T19:20:15.044Z,36.08
2019-04-25T19:22:44.493Z,30.43
2019-04-25T19:25:14.197Z,32.70
2019-04-25T19:27:45.104Z,33.08
2019-04-25T19:30:17.125Z,31.93
2019-04-25T19:32:47.128Z,32.63
2019-04-25T19:35:16.765Z,35.70
2019-04-25T19:37:46.480Z,31.30
2019-04-25T19:40:25.023Z,36.85
2019-04-25T19:42:58.432Z,31.65
2019-04-25T19:45:29.083Z,39.27
2019-04-25T19:47:58.733Z,33.53
2019-04-25T19:50:28.303Z,32.73
2019-04-25T19:52:58.065Z,27.40
2019-04-25T19:55:27.533Z,35.38
2019-04-25T19:57:57.067Z,37.42
2019-04-25T20:00:26.697Z,34.78
2019-04-25T20:03:10.846Z,38.80
2019-04-25T20:05:50.474Z,32.48
2019-04-25T20:08:26.141Z,34.60
2019-04-25T20:11:02.426Z,37.40
2019-04-25T20:13:32.071Z,42.50
2019-04-25T20:16:01.577Z,33.88
2019-04-25T20:18:31.188Z,35.35
2019-04-25T20:21:00.609Z,34.63
2019-04-25T20:23:30.097Z,36.03
2019-04-25T20:25:59.538Z,33.83
2019-04-25T20:28:29.334Z,33.45
2019-04-25T20:30:58.799Z,37.38
2019-04-25T20:33:28.507Z,37.15
2019-04-25T20:35:58.021Z,38.63
2019-04-25T20:38:27.487Z,32.28
2019-04-25T20:40:57.066Z,31.75
2019-04-25T20:43:26.533Z,35.05
2019-04-25T20:45:56.530Z,36.70
2019-04-25T20:48:28.371Z,28.65
2019-04-25T20:50:58.097Z,34.98
2019-04-25T20:53:27.567Z,33.73
2019-04-25T20:55:57.103Z,37.80
2019-04-25T20:58:27.669Z,28.32
2019-04-25T21:00:58.768Z,36.10
2019-04-25T21:03:28.301Z,30.35
2019-04-25T21:06:06.804Z,35.88
2019-04-25T21:08:36.288Z,33.00
2019-04-25T21:11:05.769Z,29.20
2019-04-25T21:13:43.720Z,31.75
2019-04-25T21:16:47.261Z,31.45
2019-04-25T21:19:19.130Z,25.45
2019-04-25T21:21:50.513Z,32.80
2019-04-25T21:24:20.315Z,33.45
2019-04-25T21:26:51.659Z,36.60
2019-04-25T21:29:21.897Z,35.83
2019-04-25T21:31:51.359Z,34.95
2019-04-25T21:34:27.131Z,35.52
2019-04-25T21:36:53.311Z,28.10
2019-04-25T21:39:51.503Z,31.87
2019-04-25T21:42:39.064Z,28.17
2019-04-25T21:45:09.203Z,35.55
2019-04-25T21:47:38.594Z,29.18
2019-04-25T21:50:08.452Z,32.58
2019-04-25T21:52:38.408Z,26.55
2019-04-25T21:55:09.026Z,38.05
2019-04-25T21:57:38.942Z,28.17
2019-04-25T22:00:11.582Z,29.57
2019-04-25T22:02:41.489Z,33.65
2019-04-25T22:05:11.904Z,29.18
2019-04-25T22:07:41.654Z,30.23
2019-04-25T22:10:12.220Z,29.55
2019-04-25T22:12:42.078Z,30.10
2019-04-25T22:15:13.505Z,31.93
2019-04-25T22:17:43.120Z,34.10
2019-04-25T22:20:12.623Z,25.15
2019-04-25T22:22:44.570Z,25.23
2019-04-25T22:25:14.215Z,36.73
2019-04-25T22:27:43.860Z,29.90
2019-04-25T22:30:14.941Z,33.78
2019-04-25T22:33:21.866Z,29.40
2019-04-25T22:36:06.070Z,30.60
2019-04-25T22:38:35.544Z,25.65
2019-04-25T22:41:05.573Z,32.95
2019-04-25T22:43:36.965Z,32.17
2019-04-25T22:46:06.547Z,32.40
2019-04-25T22:48:48.323Z,31.48
2019-04-25T22:51:18.296Z,27.50
2019-04-25T22:53:48.379Z,35.40
2019-04-25T22:56:17.859Z,30.20
2019-04-25T22:58:47.336Z,28.70
2019-04-25T23:01:42.429Z,31.33
2019-04-25T23:04:21.171Z,30.08
2019-04-25T23:06:50.621Z,30.00
2019-04-25T23:09:20.060Z,32.97
2019-04-25T23:11:50.025Z,31.90
2019-04-25T23:14:19.971Z,30.43
2019-04-25T23:16:49.459Z,26.63
2019-04-25T23:19:18.999Z,31.80
2019-04-25T23:21:48.897Z,31.27
2019-04-25T23:24:20.003Z,24.37
2019-04-25T23:26:51.711Z,35.10
2019-04-25T23:29:21.355Z,26.80
2019-04-25T23:31:50.813Z,31.50
2019-04-25T23:34:20.377Z,27.52
2019-04-25T23:36:50.017Z,29.35
2019-04-25T23:39:19.679Z,30.27
2019-04-25T23:41:49.423Z,29.40
2019-04-25T23:44:18.917Z,37.83
2019-04-25T23:46:48.948Z,33.65
2019-04-25T23:49:18.375Z,31.37
2019-04-25T23:51:48.988Z,32.20
2019-04-25T23:54:18.468Z,32.38
2019-04-25T23:56:47.992Z,33.92
2019-04-25T23:59:17.871Z,30.43
